createdAt,value
2023-01-13T00:01:26.116Z,79.08
2023-01-13T00:03:53.363Z,79.21
2023-01-13T00:06:28.351Z,79.18
2023-01-13T00:08:55.802Z,79.35
2023-01-13T00:11:23.324Z,78.77
2023-01-13T00:13:50.756Z,79.22
2023-01-13T00:16:20.294Z,79.20
2023-01-13T00:18:48.381Z,79.22
2023-01-13T00:21:18.200Z,79.42
2023-01-13T00:23:46.192Z,79.46
2023-01-13T00:26:16.994Z,79.22
2023-01-13T00:28:44.672Z,79.14
2023-01-13T00:31:17.690Z,79.31
2023-01-13T00:33:45.295Z,79.31
2023-01-13T00:36:15.682Z,79.13
2023-01-13T00:38:43.641Z,78.97
2023-01-13T00:41:13.926Z,79.46
2023-01-13T00:43:43.002Z,79.38
2023-01-13T00:46:12.953Z,79.17
2023-01-13T00:48:40.177Z,79.57
2023-01-13T00:51:11.425Z,79.42
2023-01-13T00:53:45.045Z,79.95
2023-01-13T00:56:30.565Z,79.78
2023-01-13T00:59:11.459Z,79.59
2023-01-13T01:01:39.161Z,79.94
2023-01-13T01:04:06.982Z,79.82
2023-01-13T01:06:41.247Z,80.16
2023-01-13T01:09:15.090Z,79.73
2023-01-13T01:11:43.653Z,80.07
2023-01-13T01:14:13.262Z,80.38
2023-01-13T01:16:41.855Z,80.66
2023-01-13T01:19:10.441Z,79.99
2023-01-13T01:21:37.656Z,79.65
2023-01-13T01:24:05.746Z,79.70
2023-01-13T01:26:33.525Z,80.00
2023-01-13T01:29:02.526Z,80.23
2023-01-13T01:31:32.850Z,79.79
2023-01-13T01:34:01.242Z,79.66
2023-01-13T01:36:32.308Z,80.21
2023-01-13T01:39:00.271Z,80.25
2023-01-13T01:41:32.099Z,80.18
2023-01-13T01:44:28.788Z,80.59
2023-01-13T01:46:57.920Z,80.44
2023-01-13T01:49:30.907Z,80.73
2023-01-13T01:52:23.828Z,80.46
2023-01-13T01:55:17.200Z,81.03
2023-01-13T01:58:30.128Z,81.21
2023-01-13T02:00:58.539Z,80.79
2023-01-13T02:03:26.005Z,81.08
2023-01-13T02:05:53.721Z,81.08
2023-01-13T02:08:21.781Z,81.06
2023-01-13T02:10:54.149Z,80.95
2023-01-13T02:13:23.173Z,80.72
2023-01-13T02:15:53.218Z,80.99
2023-01-13T02:18:50.974Z,80.98
2023-01-13T02:21:36.460Z,80.37
2023-01-13T02:24:28.176Z,80.84
2023-01-13T02:27:20.036Z,80.19
2023-01-13T02:30:30.338Z,80.41
2023-01-13T02:33:22.967Z,80.38
2023-01-13T02:35:58.004Z,80.54
2023-01-13T02:38:30.321Z,80.64
2023-01-13T02:41:24.478Z,80.21
2023-01-13T02:44:08.896Z,79.71
2023-01-13T02:46:59.645Z,80.36
2023-01-13T02:49:37.762Z,80.27
2023-01-13T02:52:22.014Z,80.48
2023-01-13T02:54:55.579Z,79.88
2023-01-13T02:57:26.910Z,79.87
2023-01-13T02:59:56.133Z,79.84
2023-01-13T03:02:25.307Z,80.09
2023-01-13T03:04:58.759Z,79.96
2023-01-13T03:07:53.654Z,79.38
2023-01-13T03:10:33.546Z,78.92
2023-01-13T03:13:29.065Z,78.58
2023-01-13T03:16:18.982Z,78.78
2023-01-13T03:19:21.854Z,78.78
2023-01-13T03:21:57.941Z,78.20
2023-01-13T03:24:52.088Z,77.93
2023-01-13T03:27:31.506Z,78.05
2023-01-13T03:30:12.142Z,77.76
2023-01-13T03:32:49.341Z,77.36
2023-01-13T03:35:26.620Z,78.05
2023-01-13T03:38:02.905Z,78.14
2023-01-13T03:40:36.049Z,77.62
2023-01-13T03:43:29.331Z,77.50
2023-01-13T03:46:04.207Z,77.69
2023-01-13T03:48:34.789Z,77.97
2023-01-13T03:51:14.548Z,77.48
2023-01-13T03:53:52.553Z,77.83
2023-01-13T03:56:28.264Z,77.50
2023-01-13T03:58:59.583Z,77.65
2023-01-13T04:01:40.362Z,78.31
2023-01-13T04:04:18.869Z,77.40
2023-01-13T04:07:01.675Z,77.79
2023-01-13T04:09:28.945Z,77.27
2023-01-13T04:12:05.477Z,77.70
2023-01-13T04:14:32.770Z,77.54
2023-01-13T04:17:00.184Z,77.79
2023-01-13T04:19:27.439Z,77.17
2023-01-13T04:21:54.786Z,77.11
2023-01-13T04:24:23.016Z,77.59
2023-01-13T04:26:51.165Z,77.70
2023-01-13T04:29:18.351Z,77.38
2023-01-13T04:31:45.486Z,77.85
2023-01-13T04:34:13.594Z,77.54
2023-01-13T04:36:40.916Z,77.91
2023-01-13T04:39:08.089Z,78.20
2023-01-13T04:41:53.905Z,78.40
2023-01-13T04:44:21.105Z,78.82
2023-01-13T04:46:48.319Z,78.71
2023-01-13T04:49:16.091Z,79.19
2023-01-13T04:51:43.345Z,78.78
2023-01-13T04:54:11.639Z,79.01
2023-01-13T04:56:38.827Z,79.42
2023-01-13T04:59:06.390Z,79.65
2023-01-13T05:01:33.874Z,79.58
2023-01-13T05:04:01.978Z,80.04
2023-01-13T05:06:29.827Z,79.91
2023-01-13T05:08:57.540Z,79.96
2023-01-13T05:11:43.610Z,80.41
2023-01-13T05:14:29.132Z,80.31
2023-01-13T05:17:00.576Z,79.91
2023-01-13T05:19:36.708Z,80.46
2023-01-13T05:22:22.943Z,80.00
2023-01-13T05:25:08.703Z,80.05
2023-01-13T05:27:36.443Z,80.02
2023-01-13T05:30:04.268Z,80.04
2023-01-13T05:32:31.817Z,80.60
2023-01-13T05:35:00.202Z,80.40
2023-01-13T05:37:28.020Z,80.00
2023-01-13T05:40:14.064Z,80.45
2023-01-13T05:42:59.725Z,80.03
2023-01-13T05:45:27.115Z,79.87
2023-01-13T05:47:54.632Z,80.12
2023-01-13T05:50:21.934Z,79.84
2023-01-13T05:52:49.338Z,79.68
2023-01-13T05:55:16.789Z,80.20
2023-01-13T05:57:44.096Z,79.98
2023-01-13T06:00:11.735Z,79.21
2023-01-13T06:02:39.357Z,78.83
2023-01-13T06:05:06.820Z,78.97
2023-01-13T06:07:34.093Z,79.22
2023-01-13T06:10:01.343Z,79.19
2023-01-13T06:12:28.888Z,78.78
2023-01-13T06:14:56.220Z,78.66
2023-01-13T06:17:23.393Z,78.48
2023-01-13T06:19:51.495Z,78.35
2023-01-13T06:22:23.813Z,78.40
2023-01-13T06:24:53.718Z,77.64
2023-01-13T06:27:22.551Z,77.78
2023-01-13T06:29:50.141Z,77.60
2023-01-13T06:32:27.073Z,78.21
2023-01-13T06:35:01.063Z,77.60
2023-01-13T06:37:31.495Z,77.44
2023-01-13T06:40:02.246Z,77.55
2023-01-13T06:42:53.556Z,77.44
2023-01-13T06:45:22.134Z,77.05
2023-01-13T06:47:49.837Z,77.01
2023-01-13T06:50:18.965Z,77.25
2023-01-13T06:52:46.140Z,76.97
2023-01-13T06:55:13.209Z,77.17
2023-01-13T06:57:57.375Z,77.40
2023-01-13T07:00:26.244Z,77.19
2023-01-13T07:02:53.740Z,76.68
2023-01-13T07:05:21.786Z,77.02
2023-01-13T07:07:49.172Z,77.01
2023-01-13T07:10:22.561Z,76.81
2023-01-13T07:13:08.892Z,77.03
2023-01-13T07:15:36.681Z,77.18
2023-01-13T07:18:03.957Z,76.76
2023-01-13T07:20:31.913Z,77.24
2023-01-13T07:22:59.516Z,76.81
2023-01-13T07:25:26.935Z,76.66
2023-01-13T07:27:57.703Z,77.20
2023-01-13T07:30:24.923Z,77.67
2023-01-13T07:32:53.099Z,77.38
2023-01-13T07:35:23.205Z,77.31
2023-01-13T07:37:50.496Z,77.28
2023-01-13T07:40:17.895Z,77.37
2023-01-13T07:43:03.483Z,77.22
2023-01-13T07:45:30.830Z,77.95
2023-01-13T07:47:58.163Z,76.70
2023-01-13T07:50:25.603Z,76.43
2023-01-13T07:52:53.115Z,76.72
2023-01-13T07:55:20.636Z,76.16
2023-01-13T07:57:48.749Z,76.11
2023-01-13T08:00:16.740Z,76.22
2023-01-13T08:02:43.914Z,76.53
2023-01-13T08:05:11.421Z,76.19
2023-01-13T08:07:38.803Z,76.14
2023-01-13T08:10:06.714Z,75.83
2023-01-13T08:12:56.197Z,76.27
2023-01-13T08:15:24.431Z,75.69
2023-01-13T08:17:51.600Z,76.11
2023-01-13T08:20:19.666Z,76.36
2023-01-13T08:22:46.813Z,76.68
2023-01-13T08:25:15.308Z,77.08
2023-01-13T08:27:42.917Z,77.10
2023-01-13T08:30:10.994Z,76.82
2023-01-13T08:32:38.307Z,77.02
2023-01-13T08:35:05.882Z,76.66
2023-01-13T08:37:34.564Z,77.02
2023-01-13T08:40:01.954Z,76.83
2023-01-13T08:42:31.268Z,76.98
2023-01-13T08:44:58.895Z,76.85
2023-01-13T08:47:28.847Z,77.14
2023-01-13T08:49:56.668Z,76.99
2023-01-13T08:52:24.228Z,77.05
2023-01-13T08:54:51.474Z,76.96
2023-01-13T08:57:19.996Z,76.92
2023-01-13T08:59:47.317Z,77.09
2023-01-13T09:02:20.223Z,77.24
2023-01-13T09:04:48.311Z,76.82
2023-01-13T09:07:16.288Z,76.92
2023-01-13T09:09:43.610Z,76.86
2023-01-13T09:12:34.419Z,77.07
2023-01-13T09:15:03.475Z,76.72
2023-01-13T09:17:31.256Z,76.59
2023-01-13T09:19:58.716Z,76.91
2023-01-13T09:22:27.586Z,76.70
2023-01-13T09:24:55.706Z,76.65
2023-01-13T09:27:23.777Z,76.02
2023-01-13T09:29:51.156Z,76.48
2023-01-13T09:32:18.791Z,76.29
2023-01-13T09:35:03.081Z,76.39
2023-01-13T09:37:35.072Z,76.17
2023-01-13T09:40:18.002Z,76.48
2023-01-13T09:43:33.607Z,76.40
2023-01-13T09:46:34.710Z,76.62
2023-01-13T09:49:05.143Z,76.46
2023-01-13T09:51:46.272Z,76.65
2023-01-13T09:54:55.838Z,76.15
2023-01-13T09:57:26.377Z,75.91
2023-01-13T09:59:53.789Z,76.42
2023-01-13T10:02:48.391Z,76.21
2023-01-13T10:05:35.195Z,75.43
2023-01-13T10:08:10.544Z,75.41
2023-01-13T10:10:48.830Z,75.97
2023-01-13T10:13:22.608Z,75.54
2023-01-13T10:16:02.873Z,75.63
2023-01-13T10:19:04.522Z,75.85
2023-01-13T10:21:53.075Z,75.87
2023-01-13T10:24:44.985Z,76.24
2023-01-13T10:27:38.311Z,76.36
2023-01-13T10:30:31.565Z,76.49
2023-01-13T10:33:10.130Z,76.05
2023-01-13T10:36:14.172Z,76.64
2023-01-13T10:38:44.545Z,76.45
2023-01-13T10:41:15.334Z,76.87
2023-01-13T10:43:44.014Z,76.29
2023-01-13T10:46:16.813Z,76.09
2023-01-13T10:48:47.180Z,76.15
2023-01-13T10:51:14.759Z,75.72
2023-01-13T10:53:51.500Z,76.28
2023-01-13T10:56:21.246Z,75.59
2023-01-13T10:58:48.845Z,75.79
2023-01-13T11:01:27.238Z,76.12
2023-01-13T11:03:55.408Z,76.13
2023-01-13T11:06:30.160Z,76.85
2023-01-13T11:08:58.647Z,76.26
2023-01-13T11:11:25.784Z,75.82
2023-01-13T11:14:20.308Z,75.80
2023-01-13T11:16:53.639Z,75.89
2023-01-13T11:19:25.215Z,75.72
2023-01-13T11:22:06.119Z,75.82
2023-01-13T11:24:51.634Z,76.43
2023-01-13T11:27:38.049Z,76.09
2023-01-13T11:30:26.490Z,76.27
2023-01-13T11:33:21.656Z,76.36
2023-01-13T11:35:58.220Z,75.80
2023-01-13T11:38:46.852Z,75.96
2023-01-13T11:41:28.783Z,75.65
2023-01-13T11:44:19.015Z,75.21
2023-01-13T11:46:50.360Z,75.21
2023-01-13T11:49:33.525Z,75.37
2023-01-13T11:52:33.342Z,75.25
2023-01-13T11:55:05.220Z,75.77
2023-01-13T11:57:50.169Z,74.68
2023-01-13T12:00:17.725Z,74.63
2023-01-13T12:02:51.495Z,74.84
2023-01-13T12:05:39.940Z,74.71
2023-01-13T12:08:34.654Z,73.92
2023-01-13T12:11:11.311Z,73.88
2023-01-13T12:14:19.822Z,74.21
2023-01-13T12:16:51.794Z,74.04
2023-01-13T12:19:24.701Z,74.27
2023-01-13T12:22:09.846Z,74.35
2023-01-13T12:24:55.895Z,74.71
2023-01-13T12:27:38.936Z,74.86
2023-01-13T12:30:28.058Z,74.34
2023-01-13T12:33:03.589Z,74.04
2023-01-13T12:35:33.604Z,74.60
2023-01-13T12:38:04.638Z,73.30
2023-01-13T12:40:48.298Z,74.06
2023-01-13T12:43:39.905Z,73.77
2023-01-13T12:46:19.235Z,74.23
2023-01-13T12:48:57.174Z,74.88
2023-01-13T12:51:30.042Z,74.44
2023-01-13T12:53:57.598Z,74.14
2023-01-13T12:56:41.023Z,74.91
2023-01-13T12:59:17.741Z,74.98
2023-01-13T13:01:50.779Z,74.94
2023-01-13T13:04:39.084Z,74.42
2023-01-13T13:07:15.815Z,74.78
2023-01-13T13:09:59.340Z,73.95
2023-01-13T13:13:01.683Z,74.30
2023-01-13T13:15:34.430Z,74.87
2023-01-13T13:18:16.976Z,74.63
2023-01-13T13:20:54.914Z,74.38
2023-01-13T13:24:03.081Z,74.92
2023-01-13T13:26:39.342Z,74.61
2023-01-13T13:29:24.888Z,74.76
2023-01-13T13:32:40.714Z,75.15
2023-01-13T13:35:22.812Z,75.10
2023-01-13T13:38:33.458Z,75.00
2023-01-13T13:41:27.755Z,75.39
2023-01-13T13:44:29.765Z,74.98
2023-01-13T13:47:02.979Z,75.01
2023-01-13T13:49:52.444Z,75.04
2023-01-13T13:52:22.955Z,75.05
2023-01-13T13:54:57.264Z,75.51
2023-01-13T13:57:39.831Z,75.34
2023-01-13T14:00:38.554Z,75.46
2023-01-13T14:03:25.085Z,75.65
2023-01-13T14:05:59.781Z,75.48
2023-01-13T14:08:34.948Z,75.57
2023-01-13T14:11:43.367Z,75.57
2023-01-13T14:14:17.138Z,76.45
2023-01-13T14:16:44.569Z,76.37
2023-01-13T14:19:34.524Z,76.63
2023-01-13T14:22:04.224Z,75.96
2023-01-13T14:24:32.658Z,75.68
2023-01-13T14:27:18.608Z,76.29
2023-01-13T14:29:46.426Z,75.65
2023-01-13T14:32:20.345Z,75.62
2023-01-13T14:34:47.935Z,75.60
2023-01-13T14:37:34.889Z,75.42
2023-01-13T14:40:03.584Z,75.45
2023-01-13T14:42:31.975Z,75.56
2023-01-13T14:44:59.312Z,75.55
2023-01-13T14:47:29.802Z,74.66
2023-01-13T14:50:13.771Z,75.18
2023-01-13T14:52:57.210Z,74.42
2023-01-13T14:55:30.615Z,74.78
2023-01-13T14:58:23.339Z,74.70
2023-01-13T15:00:53.082Z,74.79
2023-01-13T15:03:21.347Z,74.38
2023-01-13T15:05:51.381Z,74.41
2023-01-13T15:08:31.775Z,75.06
2023-01-13T15:11:02.422Z,74.98
2023-01-13T15:13:29.612Z,74.63
2023-01-13T15:15:59.567Z,74.24
2023-01-13T15:18:27.270Z,74.44
2023-01-13T15:20:54.499Z,74.30
2023-01-13T15:23:23.463Z,74.39
2023-01-13T15:25:51.066Z,73.81
2023-01-13T15:28:22.359Z,73.68
2023-01-13T15:30:51.146Z,73.63
2023-01-13T15:33:20.190Z,74.83
2023-01-13T15:35:52.341Z,74.88
2023-01-13T15:38:23.187Z,75.37
2023-01-13T15:40:53.206Z,74.87
2023-01-13T15:43:41.453Z,74.41
2023-01-13T15:46:36.195Z,74.89
2023-01-13T15:49:15.955Z,74.60
2023-01-13T15:51:47.917Z,74.41
2023-01-13T15:54:20.294Z,74.45
2023-01-13T15:56:47.452Z,74.78
2023-01-13T15:59:27.584Z,74.78
2023-01-13T16:01:55.748Z,75.28
2023-01-13T16:04:23.373Z,74.86
2023-01-13T16:06:50.671Z,74.93
2023-01-13T16:09:17.953Z,74.81
2023-01-13T16:11:46.407Z,74.35
2023-01-13T16:14:20.159Z,74.78
2023-01-13T16:16:49.368Z,74.24
2023-01-13T16:19:17.389Z,74.61
2023-01-13T16:21:48.738Z,74.51
2023-01-13T16:24:19.585Z,74.27
2023-01-13T16:26:49.423Z,74.17
2023-01-13T16:29:27.011Z,73.65
2023-01-13T16:31:55.227Z,74.13
2023-01-13T16:34:22.379Z,74.25
2023-01-13T16:36:50.488Z,74.59
2023-01-13T16:39:25.728Z,75.18
2023-01-13T16:41:53.385Z,75.08
2023-01-13T16:44:21.118Z,75.04
2023-01-13T16:46:50.024Z,74.43
2023-01-13T16:49:19.796Z,73.57
2023-01-13T16:51:51.215Z,74.25
2023-01-13T16:54:18.886Z,74.54
2023-01-13T16:56:48.583Z,74.69
2023-01-13T16:59:16.223Z,74.48
2023-01-13T17:01:47.259Z,74.06
2023-01-13T17:04:19.569Z,74.57
2023-01-13T17:06:55.594Z,74.56
2023-01-13T17:09:25.098Z,75.15
2023-01-13T17:11:52.768Z,74.68
2023-01-13T17:14:23.433Z,74.48
2023-01-13T17:16:54.770Z,73.73
2023-01-13T17:19:23.355Z,74.52
2023-01-13T17:21:53.540Z,74.32
2023-01-13T17:24:21.313Z,74.86
2023-01-13T17:26:50.556Z,75.45
2023-01-13T17:29:23.702Z,75.26
2023-01-13T17:31:56.622Z,75.16
2023-01-13T17:34:24.296Z,75.59
2023-01-13T17:36:51.790Z,75.97
2023-01-13T17:39:22.457Z,75.96
2023-01-13T17:41:55.613Z,75.68
2023-01-13T17:44:23.739Z,75.79
2023-01-13T17:46:51.528Z,75.68
2023-01-13T17:49:20.458Z,75.99
2023-01-13T17:52:00.826Z,75.51
2023-01-13T17:54:28.186Z,75.19
2023-01-13T17:56:57.810Z,75.13
2023-01-13T17:59:27.951Z,75.32
2023-01-13T18:01:55.408Z,74.47
2023-01-13T18:04:27.271Z,75.25
2023-01-13T18:06:57.386Z,75.95
2023-01-13T18:09:26.443Z,76.03
2023-01-13T18:11:55.269Z,75.72
2023-01-13T18:14:31.742Z,75.90
2023-01-13T18:16:59.292Z,75.51
2023-01-13T18:19:48.666Z,75.57
2023-01-13T18:22:36.470Z,75.33
2023-01-13T18:25:22.699Z,75.21
2023-01-13T18:27:50.447Z,75.83
2023-01-13T18:30:17.862Z,75.39
2023-01-13T18:32:55.950Z,76.00
2023-01-13T18:35:23.532Z,76.18
2023-01-13T18:37:53.099Z,75.95
2023-01-13T18:40:21.234Z,75.14
2023-01-13T18:42:56.824Z,75.34
2023-01-13T18:45:39.316Z,75.43
2023-01-13T18:48:09.500Z,75.68
2023-01-13T18:50:40.470Z,74.31
2023-01-13T18:53:11.555Z,75.00
2023-01-13T18:55:44.306Z,75.11
2023-01-13T18:58:14.850Z,75.83
2023-01-13T19:00:48.367Z,75.02
2023-01-13T19:03:29.906Z,75.26
2023-01-13T19:06:02.944Z,75.41
2023-01-13T19:08:34.250Z,75.04
2023-01-13T19:11:05.971Z,74.74
2023-01-13T19:13:35.492Z,75.02
2023-01-13T19:16:07.755Z,74.76
2023-01-13T19:18:36.651Z,75.06
2023-01-13T19:21:09.721Z,74.97
2023-01-13T19:23:39.627Z,75.37
2023-01-13T19:26:16.398Z,74.97
2023-01-13T19:28:46.864Z,75.38
2023-01-13T19:31:17.185Z,75.57
2023-01-13T19:33:44.449Z,75.87
2023-01-13T19:36:11.675Z,75.42
2023-01-13T19:38:39.091Z,75.18
2023-01-13T19:41:27.353Z,74.91
2023-01-13T19:44:15.156Z,75.14
2023-01-13T19:46:43.089Z,75.27
2023-01-13T19:49:11.593Z,75.89
2023-01-13T19:51:40.924Z,76.26
2023-01-13T19:54:08.100Z,75.71
2023-01-13T19:56:35.549Z,75.74
2023-01-13T19:59:04.171Z,75.56
2023-01-13T20:01:38.149Z,75.98
2023-01-13T20:04:07.636Z,76.01
2023-01-13T20:06:36.214Z,75.99
2023-01-13T20:09:05.129Z,76.11
2023-01-13T20:11:33.304Z,75.68
2023-01-13T20:14:01.448Z,75.55
2023-01-13T20:16:30.321Z,75.45
2023-01-13T20:18:59.672Z,76.71
2023-01-13T20:21:27.262Z,76.14
2023-01-13T20:23:55.738Z,75.58
2023-01-13T20:26:26.015Z,75.95
2023-01-13T20:28:53.103Z,76.07
2023-01-13T20:31:20.630Z,75.67
2023-01-13T20:33:51.238Z,76.17
2023-01-13T20:36:39.089Z,76.45
2023-01-13T20:39:09.054Z,75.65
2023-01-13T20:41:55.836Z,75.56
2023-01-13T20:44:23.210Z,76.12
2023-01-13T20:46:51.667Z,76.16
2023-01-13T20:49:18.793Z,75.88
2023-01-13T20:51:46.028Z,75.88
2023-01-13T20:54:14.600Z,75.63
2023-01-13T20:56:42.163Z,75.08
2023-01-13T20:59:09.758Z,74.95
2023-01-13T21:01:37.883Z,75.53
2023-01-13T21:04:07.144Z,75.19
2023-01-13T21:06:35.288Z,74.96
2023-01-13T21:09:03.064Z,74.81
2023-01-13T21:11:49.380Z,74.79
2023-01-13T21:14:42.042Z,74.55
2023-01-13T21:17:34.365Z,75.30
2023-01-13T21:20:04.347Z,75.38
2023-01-13T21:22:32.320Z,75.72
2023-01-13T21:25:00.050Z,76.39
2023-01-13T21:27:27.557Z,76.47
2023-01-13T21:29:54.813Z,76.53
2023-01-13T21:32:22.061Z,76.46
2023-01-13T21:34:49.618Z,77.04
2023-01-13T21:37:17.678Z,76.36
2023-01-13T21:39:45.748Z,76.53
2023-01-13T21:42:35.917Z,77.04
2023-01-13T21:45:22.968Z,76.45
2023-01-13T21:47:50.468Z,76.77
2023-01-13T21:50:24.042Z,76.57
2023-01-13T21:52:53.067Z,76.63
2023-01-13T21:55:30.639Z,76.56
2023-01-13T21:58:01.183Z,77.30
2023-01-13T22:00:31.260Z,77.02
2023-01-13T22:03:01.319Z,76.90
2023-01-13T22:05:28.540Z,76.87
2023-01-13T22:07:55.805Z,77.21
2023-01-13T22:10:25.704Z,76.74
2023-01-13T22:12:54.761Z,76.62
2023-01-13T22:15:26.912Z,76.80
2023-01-13T22:17:55.777Z,76.88
2023-01-13T22:20:23.491Z,76.54
2023-01-13T22:22:51.941Z,76.54
2023-01-13T22:25:20.853Z,76.24
2023-01-13T22:27:49.645Z,76.55
2023-01-13T22:30:22.029Z,76.52
2023-01-13T22:32:50.287Z,77.31
2023-01-13T22:35:18.581Z,76.94
2023-01-13T22:37:45.817Z,76.80
2023-01-13T22:40:13.422Z,76.53
2023-01-13T22:42:42.150Z,76.90
2023-01-13T22:45:14.495Z,76.84
2023-01-13T22:47:42.096Z,77.34
2023-01-13T22:50:10.944Z,77.53
2023-01-13T22:52:38.352Z,76.76
2023-01-13T22:55:07.236Z,76.76
2023-01-13T22:57:46.989Z,76.67
2023-01-13T23:00:19.168Z,76.15
2023-01-13T23:02:47.098Z,75.96
2023-01-13T23:05:14.832Z,76.38
2023-01-13T23:07:42.207Z,76.51
2023-01-13T23:10:10.395Z,76.30
2023-01-13T23:12:37.558Z,76.13
2023-01-13T23:15:05.636Z,76.67
2023-01-13T23:17:32.876Z,76.73
2023-01-13T23:20:00.962Z,76.79
2023-01-13T23:22:28.143Z,76.63
2023-01-13T23:24:55.492Z,76.86
2023-01-13T23:27:22.638Z,76.91
2023-01-13T23:29:49.836Z,76.53
2023-01-13T23:32:16.985Z,76.26
2023-01-13T23:34:44.344Z,75.83
2023-01-13T23:37:11.686Z,76.04
2023-01-13T23:39:38.913Z,76.61
2023-01-13T23:42:09.264Z,76.29
2023-01-13T23:44:36.876Z,76.50
2023-01-13T23:47:04.528Z,76.44
2023-01-13T23:49:32.201Z,76.84
2023-01-13T23:51:59.452Z,76.96
2023-01-13T23:54:27.963Z,76.28
2023-01-13T23:56:55.997Z,76.06
2023-01-13T23:59:23.340Z,76.98
